Time;durP1;ratioP1;P1;durP2;ratioP2;P2;SDS_P1;SDS_P2;PMS_P1;PMS_P2;Temp;Humidity;BMP_temperature;BMP_pressure;BME280_temperature;BME280_humidity;BME280_pressure;Samples;Min_cycle;Max_cycle;Signal;HPM_P1;HPM_P2
2021/11/25 00:00:15;;;;;;;5.53;2.17;;;;;;;;;;4984209;28;20087;-54
2021/11/25 00:02:41;;;;;;;16.48;3.10;;;;;;;;;;4978623;28;20045;-50
2021/11/25 00:05:08;;;;;;;9.98;2.97;;;;;;;;;;4984044;28;20039;-54
2021/11/25 00:07:34;;;;;;;7.00;2.95;;;;;;;;;;4983120;28;20451;-52
2021/11/25 00:10:00;;;;;;;9.85;3.20;;;;;;;;;;4982680;28;20130;-53
2021/11/25 00:12:26;;;;;;;11.80;3.30;;;;;;;;;;4981557;28;20038;-53
2021/11/25 00:14:51;;;;;;;8.68;2.90;;;;;;;;;;4983518;28;20084;-50
2021/11/25 00:17:17;;;;;;;12.20;3.03;;;;;;;;;;4983202;28;20038;-53
2021/11/25 00:19:43;;;;;;;6.22;3.28;;;;;;;;;;4983153;28;20054;-54
2021/11/25 00:22:09;;;;;;;7.32;2.97;;;;;;;;;;4980874;28;20045;-52
2021/11/25 00:24:35;;;;;;;7.57;2.78;;;;;;;;;;4981126;28;20094;-51
2021/11/25 00:27:01;;;;;;;10.70;3.45;;;;;;;;;;4983417;28;20043;-52
2021/11/25 00:29:27;;;;;;;9.40;3.00;;;;;;;;;;4983495;28;20066;-55
2021/11/25 00:31:53;;;;;;;10.32;3.38;;;;;;;;;;4983989;28;20082;-54
2021/11/25 00:34:19;;;;;;;9.00;4.28;;;;;;;;;;4982619;28;20411;-54
2021/11/25 00:36:45;;;;;;;9.15;4.00;;;;;;;;;;4984050;28;20589;-52
2021/11/25 00:39:11;;;;;;;11.55;3.65;;;;;;;;;;4983023;28;20503;-53
2021/11/25 00:41:37;;;;;;;12.80;3.67;;;;;;;;;;4983183;28;20057;-54
2021/11/25 00:44:03;;;;;;;10.10;3.78;;;;;;;;;;4981836;28;20084;-52
2021/11/25 00:46:29;;;;;;;14.35;3.65;;;;;;;;;;4982089;28;20158;-55
2021/11/25 00:48:55;;;;;;;10.48;3.97;;;;;;;;;;4982408;28;20034;-51
2021/11/25 00:51:21;;;;;;;18.90;3.67;;;;;;;;;;4983244;28;20101;-56
2021/11/25 00:53:46;;;;;;;11.43;3.58;;;;;;;;;;4983192;28;20054;-50
2021/11/25 00:56:12;;;;;;;14.10;3.65;;;;;;;;;;4981267;28;20089;-54
2021/11/25 00:58:38;;;;;;;8.05;3.13;;;;;;;;;;4980811;28;20093;-56
2021/11/25 01:01:04;;;;;;;7.60;3.35;;;;;;;;;;4979241;28;20040;-53
2021/11/25 01:03:30;;;;;;;6.55;3.25;;;;;;;;;;4980297;28;20042;-55
2021/11/25 01:05:56;;;;;;;7.78;3.00;;;;;;;;;;4962265;28;20046;-53
2021/11/25 01:08:22;;;;;;;6.53;2.90;;;;;;;;;;4977889;28;20060;-53
2021/11/25 01:10:48;;;;;;;8.75;2.83;;;;;;;;;;4978585;28;20034;-55
2021/11/25 01:13:15;;;;;;;8.25;2.80;;;;;;;;;;4979979;28;20050;-55
2021/11/25 01:15:41;;;;;;;6.60;2.45;;;;;;;;;;4980011;28;20043;-53
2021/11/25 01:18:11;;;;;;;9.13;3.20;;;;;;;;;;4980032;28;20034;-52
2021/11/25 01:20:39;;;;;;;6.97;2.80;;;;;;;;;;4979152;28;20038;-52
2021/11/25 01:23:10;;;;;;;6.20;2.63;;;;;;;;;;4978634;28;20450;-52
2021/11/25 01:25:36;;;;;;;12.68;3.15;;;;;;;;;;4978268;28;20388;-53
2021/11/25 01:28:02;;;;;;;10.65;3.40;;;;;;;;;;4981959;28;20554;-51
2021/11/25 01:30:28;;;;;;;11.85;3.50;;;;;;;;;;4980439;28;20113;-54
2021/11/25 01:32:54;;;;;;;6.60;3.15;;;;;;;;;;4982830;28;20048;-55
2021/11/25 01:35:20;;;;;;;6.63;3.10;;;;;;;;;;4979164;28;20466;-51
2021/11/25 01:37:48;;;;;;;7.68;3.42;;;;;;;;;;4983018;28;20061;-52
2021/11/25 01:40:14;;;;;;;8.18;3.13;;;;;;;;;;4980171;28;20046;-53
2021/11/25 01:42:41;;;;;;;10.30;3.40;;;;;;;;;;4981469;28;21781;-52
2021/11/25 01:45:08;;;;;;;7.28;3.15;;;;;;;;;;4963610;28;20599;-51
2021/11/25 01:47:34;;;;;;;8.15;2.95;;;;;;;;;;4981017;28;20103;-55
2021/11/25 01:50:00;;;;;;;9.52;3.45;;;;;;;;;;4981571;28;20402;-54
2021/11/25 01:52:26;;;;;;;7.25;3.30;;;;;;;;;;4981414;28;20113;-55
2021/11/25 01:54:52;;;;;;;7.88;2.88;;;;;;;;;;4980080;28;20104;-54
2021/11/25 01:57:18;;;;;;;9.10;3.53;;;;;;;;;;4981080;28;20092;-52
2021/11/25 01:59:44;;;;;;;5.20;2.97;;;;;;;;;;4980347;28;20101;-54
2021/11/25 02:02:10;;;;;;;6.75;2.83;;;;;;;;;;4981977;28;20041;-54
2021/11/25 02:04:36;;;;;;;12.20;3.63;;;;;;;;;;4981730;28;21904;-55
2021/11/25 02:07:03;;;;;;;11.73;3.25;;;;;;;;;;4981555;28;20034;-51
2021/11/25 02:09:28;;;;;;;6.68;3.17;;;;;;;;;;4967879;28;20077;-51
2021/11/25 02:11:54;;;;;;;10.35;3.00;;;;;;;;;;4982758;28;20117;-51
2021/11/25 02:14:20;;;;;;;9.98;2.92;;;;;;;;;;4981389;28;20041;-50
2021/11/25 02:16:49;;;;;;;13.00;3.90;;;;;;;;;;4981160;28;20511;-53
2021/11/25 02:19:15;;;;;;;13.07;4.03;;;;;;;;;;4951125;28;20049;-54
2021/11/25 02:21:42;;;;;;;10.25;3.90;;;;;;;;;;4978620;28;20101;-52
2021/11/25 02:24:08;;;;;;;8.30;3.80;;;;;;;;;;4980118;28;20057;-52
2021/11/25 02:26:33;;;;;;;7.65;3.67;;;;;;;;;;4980654;28;20050;-52
2021/11/25 02:28:59;;;;;;;9.02;3.60;;;;;;;;;;4980418;28;20045;-54
2021/11/25 02:31:25;;;;;;;14.05;3.78;;;;;;;;;;4981518;28;20085;-53
2021/11/25 02:33:51;;;;;;;9.43;3.65;;;;;;;;;;4962840;28;20122;-56
2021/11/25 02:36:17;;;;;;;7.50;3.65;;;;;;;;;;4980148;28;20062;-54
2021/11/25 02:38:43;;;;;;;9.50;4.95;;;;;;;;;;4979518;28;20041;-54
2021/11/25 02:41:09;;;;;;;8.52;3.67;;;;;;;;;;4982470;28;20104;-53
2021/11/25 02:43:35;;;;;;;5.88;3.17;;;;;;;;;;4982092;28;20787;-55
2021/11/25 02:46:03;;;;;;;6.50;2.90;;;;;;;;;;4963603;28;20403;-53
2021/11/25 02:48:31;;;;;;;9.57;3.47;;;;;;;;;;4980348;28;20409;-54
2021/11/25 02:50:58;;;;;;;9.43;3.72;;;;;;;;;;4981437;28;21134;-54
2021/11/25 02:53:25;;;;;;;14.13;3.72;;;;;;;;;;4979379;28;20061;-55
2021/11/25 02:55:58;;;;;;;8.10;3.22;;;;;;;;;;4980304;28;20034;-55
2021/11/25 02:58:25;;;;;;;7.75;2.55;;;;;;;;;;4978739;28;20038;-55
2021/11/25 03:00:52;;;;;;;5.65;2.00;;;;;;;;;;4978146;28;20039;-53
2021/11/25 03:03:18;;;;;;;6.55;2.22;;;;;;;;;;4982099;28;20042;-52
2021/11/25 03:05:45;;;;;;;4.22;1.88;;;;;;;;;;4981424;28;20069;-54
2021/11/25 03:08:12;;;;;;;4.72;1.85;;;;;;;;;;4984714;28;20112;-52
2021/11/25 03:10:42;;;;;;;4.95;1.80;;;;;;;;;;4986470;28;20049;-53
2021/11/25 03:13:09;;;;;;;6.35;1.85;;;;;;;;;;4988016;28;20502;-55
2021/11/25 03:15:36;;;;;;;4.80;1.73;;;;;;;;;;4985760;28;20065;-52
2021/11/25 03:18:04;;;;;;;3.97;1.35;;;;;;;;;;4985914;28;20117;-53
2021/11/25 03:20:30;;;;;;;4.68;1.38;;;;;;;;;;4985198;28;20082;-51
2021/11/25 03:22:57;;;;;;;4.18;1.23;;;;;;;;;;4985912;28;20043;-52
2021/11/25 03:25:23;;;;;;;2.70;0.93;;;;;;;;;;4984201;28;20066;-56
2021/11/25 03:27:50;;;;;;;5.05;1.13;;;;;;;;;;4986315;28;20050;-54
2021/11/25 03:30:16;;;;;;;4.20;1.20;;;;;;;;;;4981469;28;20057;-56
2021/11/25 03:32:42;;;;;;;3.78;1.25;;;;;;;;;;4986086;28;20043;-55
2021/11/25 03:35:08;;;;;;;4.60;1.60;;;;;;;;;;4985379;28;20041;-62
2021/11/25 03:37:35;;;;;;;3.50;1.20;;;;;;;;;;4985368;28;20055;-55
2021/11/25 03:40:01;;;;;;;2.95;1.20;;;;;;;;;;4984530;28;20432;-51
2021/11/25 03:42:27;;;;;;;4.10;1.20;;;;;;;;;;4983321;28;20026;-50
2021/11/25 03:44:53;;;;;;;4.25;1.10;;;;;;;;;;4984540;28;20507;-52
2021/11/25 03:47:19;;;;;;;9.30;1.20;;;;;;;;;;4987130;28;20154;-51
2021/11/25 03:49:45;;;;;;;6.28;1.40;;;;;;;;;;4984480;28;20038;-53
2021/11/25 03:52:11;;;;;;;3.30;1.10;;;;;;;;;;4982796;28;20039;-53
2021/11/25 03:54:38;;;;;;;3.47;1.20;;;;;;;;;;4982456;28;20099;-57
2021/11/25 03:57:04;;;;;;;12.07;1.30;;;;;;;;;;4983413;28;20046;-54
2021/11/25 03:59:30;;;;;;;6.68;1.20;;;;;;;;;;4982981;28;20042;-55
2021/11/25 04:01:56;;;;;;;8.27;1.10;;;;;;;;;;4984280;28;20044;-53
2021/11/25 04:04:21;;;;;;;4.25;1.30;;;;;;;;;;4983720;28;20042;-52
2021/11/25 04:06:47;;;;;;;6.13;1.40;;;;;;;;;;4963404;28;20047;-54
2021/11/25 04:09:13;;;;;;;4.45;1.20;;;;;;;;;;4965474;28;20422;-54
2021/11/25 04:11:39;;;;;;;3.88;1.40;;;;;;;;;;4962228;28;20049;-55
2021/11/25 04:14:05;;;;;;;3.22;1.20;;;;;;;;;;4963003;28;20096;-54
2021/11/25 04:16:31;;;;;;;7.32;1.45;;;;;;;;;;4964369;28;20120;-53
2021/11/25 04:18:57;;;;;;;3.33;1.00;;;;;;;;;;4963605;28;20050;-54
2021/11/25 04:21:24;;;;;;;3.55;1.05;;;;;;;;;;4962324;28;20042;-53
2021/11/25 04:23:49;;;;;;;4.57;1.40;;;;;;;;;;4945946;28;21121;-54
2021/11/25 04:26:15;;;;;;;7.75;1.40;;;;;;;;;;4963456;28;20055;-53
2021/11/25 04:28:41;;;;;;;2.63;1.00;;;;;;;;;;4964031;28;20139;-54
2021/11/25 04:36:35;;;;;;;2.00;0.70;;;;;;;;;;4963046;28;20048;-56
2021/11/25 04:39:05;;;;;;;2.47;0.80;;;;;;;;;;4962921;28;20043;-56
2021/11/25 04:41:31;;;;;;;1.67;0.60;;;;;;;;;;4962899;28;20499;-53
2021/11/25 04:43:57;;;;;;;3.00;0.80;;;;;;;;;;4962108;28;20129;-54
2021/11/25 04:46:22;;;;;;;10.82;1.70;;;;;;;;;;4963986;28;20047;-52
2021/11/25 04:48:48;;;;;;;2.83;1.00;;;;;;;;;;4963043;28;20384;-54
2021/11/25 04:51:15;;;;;;;2.42;0.80;;;;;;;;;;4962609;28;20542;-56
2021/11/25 04:53:41;;;;;;;1.85;0.70;;;;;;;;;;4962102;28;20111;-55
2021/11/25 04:56:07;;;;;;;5.35;1.40;;;;;;;;;;4962683;28;20043;-52
2021/11/25 04:58:32;;;;;;;4.13;1.20;;;;;;;;;;4962046;28;20042;-54
2021/11/25 05:00:59;;;;;;;4.70;0.90;;;;;;;;;;4962607;28;20134;-55
2021/11/25 05:03:24;;;;;;;6.93;1.33;;;;;;;;;;4961782;28;20162;-55
2021/11/25 05:05:50;;;;;;;2.95;1.00;;;;;;;;;;4944695;28;20065;-56
2021/11/25 05:08:16;;;;;;;5.93;1.20;;;;;;;;;;4978147;28;20084;-52
2021/11/25 05:10:42;;;;;;;5.50;1.80;;;;;;;;;;4982723;28;21421;-54
2021/11/25 05:13:08;;;;;;;4.03;1.60;;;;;;;;;;4982034;28;20134;-56
2021/11/25 05:15:35;;;;;;;3.55;1.40;;;;;;;;;;4983678;28;20438;-53
2021/11/25 05:18:00;;;;;;;3.13;1.08;;;;;;;;;;4984892;28;20160;-53
2021/11/25 05:20:27;;;;;;;2.15;0.77;;;;;;;;;;4981670;28;20034;-55
2021/11/25 05:22:53;;;;;;;3.63;0.90;;;;;;;;;;4982995;28;20412;-53
2021/11/25 05:25:19;;;;;;;5.43;1.05;;;;;;;;;;4980418;28;20050;-53
2021/11/25 05:27:46;;;;;;;4.35;1.23;;;;;;;;;;4963520;28;20074;-52
2021/11/25 05:30:12;;;;;;;2.70;0.98;;;;;;;;;;4984174;28;20042;-50
2021/11/25 05:32:38;;;;;;;2.15;0.80;;;;;;;;;;4981671;28;20092;-53
2021/11/25 05:35:05;;;;;;;2.47;0.73;;;;;;;;;;4979387;28;20411;-54
2021/11/25 05:37:32;;;;;;;2.92;1.15;;;;;;;;;;4955454;28;20041;-54
2021/11/25 05:39:58;;;;;;;2.30;0.80;;;;;;;;;;4982827;28;20034;-52
2021/11/25 05:42:23;;;;;;;2.83;0.85;;;;;;;;;;4980847;28;20112;-54
2021/11/25 05:44:49;;;;;;;3.67;0.75;;;;;;;;;;4982808;28;20129;-54
2021/11/25 05:47:16;;;;;;;2.92;1.10;;;;;;;;;;4984052;28;20054;-54
2021/11/25 05:49:42;;;;;;;3.22;0.80;;;;;;;;;;4982863;28;20056;-51
2021/11/25 05:52:08;;;;;;;2.72;0.68;;;;;;;;;;4983107;28;20031;-51
2021/11/25 05:54:34;;;;;;;2.38;0.70;;;;;;;;;;4983907;28;20918;-51
2021/11/25 05:57:00;;;;;;;2.85;0.95;;;;;;;;;;4965892;28;20124;-52
2021/11/25 05:59:25;;;;;;;3.28;0.85;;;;;;;;;;4981709;28;20467;-52
2021/11/25 06:01:51;;;;;;;2.63;0.90;;;;;;;;;;4983977;28;20052;-50
2021/11/25 06:04:17;;;;;;;2.05;0.80;;;;;;;;;;4981545;28;20055;-55
2021/11/25 06:06:43;;;;;;;2.35;0.80;;;;;;;;;;4982839;28;20050;-62
2021/11/25 06:09:09;;;;;;;2.92;0.93;;;;;;;;;;4982650;28;20043;-55
2021/11/25 06:11:35;;;;;;;3.88;1.00;;;;;;;;;;4981929;28;20041;-53
2021/11/25 06:14:01;;;;;;;2.72;0.75;;;;;;;;;;4981641;28;20107;-51
2021/11/25 06:16:27;;;;;;;4.22;1.10;;;;;;;;;;4983062;28;20054;-54
2021/11/25 06:18:53;;;;;;;2.55;0.82;;;;;;;;;;4981602;28;20632;-54
2021/11/25 06:21:19;;;;;;;3.22;0.80;;;;;;;;;;4980450;28;20770;-55
2021/11/25 06:23:45;;;;;;;2.67;1.00;;;;;;;;;;4981802;28;20066;-53
2021/11/25 06:26:11;;;;;;;2.60;0.90;;;;;;;;;;4982125;28;20042;-55
2021/11/25 06:28:37;;;;;;;2.50;0.90;;;;;;;;;;4981033;28;20503;-54
2021/11/25 06:31:03;;;;;;;3.35;0.98;;;;;;;;;;4965512;28;20640;-54
2021/11/25 06:33:28;;;;;;;3.35;1.00;;;;;;;;;;4980371;28;20050;-55
2021/11/25 06:35:54;;;;;;;4.97;1.00;;;;;;;;;;4981888;28;20348;-54
2021/11/25 06:38:20;;;;;;;2.15;0.70;;;;;;;;;;4982570;28;20093;-52
2021/11/25 06:40:47;;;;;;;1.88;0.70;;;;;;;;;;4983155;28;20460;-55
2021/11/25 06:43:13;;;;;;;7.50;0.73;;;;;;;;;;4985186;28;20066;-54
2021/11/25 06:45:41;;;;;;;2.20;0.80;;;;;;;;;;4985023;28;20121;-54
2021/11/25 06:48:07;;;;;;;3.97;1.08;;;;;;;;;;4985425;28;20030;-57
2021/11/25 06:50:33;;;;;;;7.45;1.40;;;;;;;;;;4982894;28;20519;-53
2021/11/25 06:52:59;;;;;;;5.72;1.60;;;;;;;;;;4984693;28;20086;-53
2021/11/25 06:55:25;;;;;;;11.85;2.00;;;;;;;;;;4986018;28;20133;-54
2021/11/25 06:57:51;;;;;;;5.63;1.83;;;;;;;;;;4985951;28;20578;-55
2021/11/25 07:00:24;;;;;;;6.30;1.92;;;;;;;;;;4983946;28;20050;-54
2021/11/25 07:02:54;;;;;;;5.20;2.22;;;;;;;;;;4987693;28;20133;-51
2021/11/25 07:05:20;;;;;;;5.63;1.92;;;;;;;;;;4969984;28;20089;-52
2021/11/25 07:07:46;;;;;;;4.82;1.73;;;;;;;;;;4986021;28;20113;-54
2021/11/25 07:10:16;;;;;;;9.57;2.03;;;;;;;;;;4985835;28;20089;-54
2021/11/25 07:12:42;;;;;;;7.10;2.10;;;;;;;;;;4984762;28;20091;-51
2021/11/25 07:15:09;;;;;;;3.65;1.42;;;;;;;;;;4985267;28;20030;-55
2021/11/25 07:17:34;;;;;;;6.70;1.77;;;;;;;;;;4985491;28;20053;-55
2021/11/25 07:20:02;;;;;;;4.65;1.67;;;;;;;;;;4983497;28;20849;-52
2021/11/25 07:22:29;;;;;;;6.72;1.40;;;;;;;;;;4984454;28;20048;-54
2021/11/25 07:24:55;;;;;;;4.10;1.42;;;;;;;;;;4982684;28;20039;-52
2021/11/25 07:27:21;;;;;;;5.53;1.50;;;;;;;;;;4981628;28;20044;-54
2021/11/25 07:29:47;;;;;;;3.13;1.05;;;;;;;;;;4985348;28;20525;-56
2021/11/25 07:32:13;;;;;;;4.50;1.10;;;;;;;;;;4985406;28;20042;-55
2021/11/25 07:34:38;;;;;;;4.28;1.30;;;;;;;;;;4982742;28;20070;-54
2021/11/25 07:37:04;;;;;;;6.22;1.23;;;;;;;;;;4984608;28;20085;-55
2021/11/25 07:39:31;;;;;;;2.90;0.90;;;;;;;;;;4983134;28;20042;-56
2021/11/25 07:41:56;;;;;;;2.80;1.30;;;;;;;;;;4983501;28;20730;-54
2021/11/25 07:44:22;;;;;;;2.72;0.90;;;;;;;;;;4982635;28;20100;-54
2021/11/25 07:46:48;;;;;;;3.92;0.93;;;;;;;;;;4983814;28;20070;-54
2021/11/25 07:49:14;;;;;;;1.85;0.70;;;;;;;;;;4985558;28;20053;-54
2021/11/25 07:51:40;;;;;;;3.47;1.25;;;;;;;;;;4982475;28;20041;-56
2021/11/25 07:54:09;;;;;;;7.38;1.08;;;;;;;;;;4983512;28;20061;-55
2021/11/25 07:56:35;;;;;;;3.75;0.80;;;;;;;;;;4964794;28;20038;-52
2021/11/25 07:59:01;;;;;;;2.75;0.90;;;;;;;;;;4982286;28;20348;-55
2021/11/25 08:01:27;;;;;;;2.03;0.70;;;;;;;;;;4984018;28;20104;-51
2021/11/25 08:03:53;;;;;;;2.70;0.98;;;;;;;;;;4984414;28;20061;-54
2021/11/25 08:06:19;;;;;;;2.50;0.80;;;;;;;;;;4983321;28;20046;-55
2021/11/25 08:08:46;;;;;;;2.80;0.90;;;;;;;;;;4964735;28;20038;-54
2021/11/25 08:11:12;;;;;;;2.53;0.73;;;;;;;;;;4983110;28;20051;-52
2021/11/25 08:13:38;;;;;;;2.10;0.70;;;;;;;;;;4981836;28;20459;-53
2021/11/25 08:16:04;;;;;;;2.90;0.70;;;;;;;;;;4982004;28;20150;-56
2021/11/25 08:18:30;;;;;;;2.72;0.80;;;;;;;;;;4983176;28;20048;-52
2021/11/25 08:20:56;;;;;;;7.13;1.00;;;;;;;;;;4983071;28;20409;-51
2021/11/25 08:23:22;;;;;;;3.20;0.90;;;;;;;;;;4981923;28;20043;-55
2021/11/25 08:25:49;;;;;;;2.22;0.70;;;;;;;;;;4982210;28;20060;-52
2021/11/25 08:28:16;;;;;;;2.83;0.75;;;;;;;;;;4982172;28;20038;-54
2021/11/25 08:30:42;;;;;;;2.63;0.80;;;;;;;;;;4980117;28;20512;-54
2021/11/25 08:33:08;;;;;;;2.67;0.80;;;;;;;;;;4981931;28;20050;-53
2021/11/25 08:35:34;;;;;;;4.43;1.10;;;;;;;;;;4981394;28;20101;-53
2021/11/25 08:38:02;;;;;;;2.22;0.75;;;;;;;;;;4983435;28;20403;-55
2021/11/25 08:40:28;;;;;;;2.88;0.73;;;;;;;;;;4962645;28;20030;-53
2021/11/25 08:42:55;;;;;;;4.82;0.77;;;;;;;;;;4982983;28;20387;-54
2021/11/25 08:45:21;;;;;;;2.25;0.70;;;;;;;;;;4981978;28;20042;-51
2021/11/25 08:47:47;;;;;;;2.30;0.60;;;;;;;;;;4984888;28;20046;-52
2021/11/25 08:50:13;;;;;;;1.85;0.68;;;;;;;;;;4982088;28;20105;-54
2021/11/25 08:52:39;;;;;;;2.15;0.73;;;;;;;;;;4983669;28;20443;-53
2021/11/25 08:55:06;;;;;;;2.83;0.80;;;;;;;;;;4981619;28;20712;-50
2021/11/25 08:57:32;;;;;;;1.90;0.63;;;;;;;;;;4982694;28;20057;-50
2021/11/25 08:59:58;;;;;;;1.63;0.60;;;;;;;;;;4983685;28;20038;-53
2021/11/25 09:02:24;;;;;;;1.70;0.57;;;;;;;;;;4980534;28;20050;-53
2021/11/25 09:04:49;;;;;;;3.10;0.57;;;;;;;;;;4979415;28;20112;-52
2021/11/25 09:07:15;;;;;;;1.85;0.60;;;;;;;;;;4983404;28;20054;-52
2021/11/25 09:09:42;;;;;;;3.28;0.70;;;;;;;;;;4965004;28;20042;-53
2021/11/25 09:12:08;;;;;;;2.13;0.68;;;;;;;;;;4969690;28;20053;-53
2021/11/25 09:14:33;;;;;;;2.53;0.80;;;;;;;;;;4980731;28;20054;-53
2021/11/25 09:16:59;;;;;;;2.70;0.75;;;;;;;;;;4981413;28;20883;-53
2021/11/25 09:19:25;;;;;;;1.85;0.50;;;;;;;;;;4982316;28;20050;-53
2021/11/25 09:21:51;;;;;;;2.95;0.88;;;;;;;;;;4983756;28;20033;-54
2021/11/25 09:24:18;;;;;;;1.92;0.57;;;;;;;;;;4981371;28;20049;-51
2021/11/25 09:26:44;;;;;;;1.42;0.50;;;;;;;;;;4981988;28;20066;-55
2021/11/25 09:29:10;;;;;;;1.38;0.40;;;;;;;;;;4982206;28;20046;-50
2021/11/25 09:31:36;;;;;;;1.35;0.50;;;;;;;;;;4980537;28;20042;-53
2021/11/25 09:34:03;;;;;;;1.80;0.52;;;;;;;;;;4983493;28;20133;-52
2021/11/25 09:36:30;;;;;;;1.67;0.57;;;;;;;;;;4981896;28;20034;-53
2021/11/25 09:38:56;;;;;;;1.90;0.63;;;;;;;;;;4982972;28;20038;-52
2021/11/25 09:41:22;;;;;;;2.03;0.75;;;;;;;;;;4981796;28;20034;-53
2021/11/25 09:43:48;;;;;;;2.03;0.68;;;;;;;;;;4980765;28;20038;-52
2021/11/25 09:46:15;;;;;;;1.42;0.50;;;;;;;;;;4982222;28;20047;-55
2021/11/25 09:48:41;;;;;;;1.58;0.60;;;;;;;;;;4982759;28;20039;-51
2021/11/25 09:51:08;;;;;;;1.17;0.45;;;;;;;;;;4981440;28;20053;-55
2021/11/25 09:53:35;;;;;;;2.40;0.70;;;;;;;;;;4980272;28;20148;-53
2021/11/25 09:56:03;;;;;;;2.50;0.68;;;;;;;;;;4981541;28;20058;-54
2021/11/25 09:58:30;;;;;;;1.95;0.60;;;;;;;;;;4980446;28;20038;-55
2021/11/25 10:00:58;;;;;;;1.65;0.50;;;;;;;;;;4981414;28;20078;-52
2021/11/25 10:03:24;;;;;;;2.10;0.60;;;;;;;;;;4981093;28;20034;-53
2021/11/25 10:05:52;;;;;;;2.45;0.80;;;;;;;;;;4980756;28;20034;-52
2021/11/25 10:08:23;;;;;;;1.48;0.60;;;;;;;;;;4982431;28;20046;-53
2021/11/25 10:11:09;;;;;;;1.23;0.52;;;;;;;;;;4982309;28;20074;-53
2021/11/25 10:13:38;;;;;;;1.58;0.60;;;;;;;;;;4981430;28;20046;-53
2021/11/25 10:16:06;;;;;;;1.58;0.50;;;;;;;;;;4983457;28;20034;-53
2021/11/25 10:18:34;;;;;;;2.28;0.98;;;;;;;;;;4984362;28;20084;-54
2021/11/25 10:21:01;;;;;;;2.28;0.60;;;;;;;;;;4985594;28;20430;-55
2021/11/25 10:23:29;;;;;;;1.60;0.60;;;;;;;;;;4984869;28;20034;-54
2021/11/25 10:26:05;;;;;;;1.33;0.47;;;;;;;;;;4986232;28;20168;-54
2021/11/25 10:28:31;;;;;;;2.03;0.57;;;;;;;;;;4986442;28;20045;-54
2021/11/25 10:31:02;;;;;;;1.52;0.60;;;;;;;;;;4986196;28;20042;-54
2021/11/25 10:33:31;;;;;;;7.32;0.70;;;;;;;;;;4985469;28;20047;-50
2021/11/25 10:38:44;;;;;;;2.70;0.68;;;;;;;;;;4985530;28;20049;-55
2021/11/25 10:41:17;;;;;;;1.65;0.60;;;;;;;;;;4986031;28;20162;-55
2021/11/25 10:43:43;;;;;;;1.65;0.60;;;;;;;;;;4986148;28;20039;-55
2021/11/25 10:46:10;;;;;;;1.90;0.60;;;;;;;;;;4985687;28;20049;-55
2021/11/25 10:48:39;;;;;;;1.90;0.60;;;;;;;;;;4967796;28;20474;-55
2021/11/25 10:51:23;;;;;;;1.58;0.57;;;;;;;;;;4988847;28;20038;-56
2021/11/25 10:54:08;;;;;;;1.80;0.60;;;;;;;;;;4984539;28;20050;-56
2021/11/25 10:56:42;;;;;;;1.98;0.65;;;;;;;;;;4987539;28;20077;-53
2021/11/25 10:59:09;;;;;;;1.50;0.60;;;;;;;;;;4983784;28;20543;-55
2021/11/25 11:01:36;;;;;;;2.28;0.63;;;;;;;;;;4984489;28;20128;-51
2021/11/25 11:04:03;;;;;;;2.47;0.50;;;;;;;;;;4985406;28;20158;-54
2021/11/25 11:06:30;;;;;;;2.05;0.60;;;;;;;;;;4986767;28;20053;-52
2021/11/25 11:08:56;;;;;;;1.75;0.60;;;;;;;;;;4984134;28;20058;-53
2021/11/25 11:11:22;;;;;;;1.73;0.55;;;;;;;;;;4984239;28;20137;-54
2021/11/25 11:14:11;;;;;;;2.22;0.70;;;;;;;;;;4985416;28;20080;-51
2021/11/25 11:17:03;;;;;;;2.05;0.60;;;;;;;;;;4986039;28;20113;-50
2021/11/25 11:19:29;;;;;;;1.55;0.50;;;;;;;;;;4984595;28;20116;-51
2021/11/25 11:21:56;;;;;;;1.55;0.50;;;;;;;;;;4984175;28;20112;-52
2021/11/25 11:24:21;;;;;;;2.05;0.68;;;;;;;;;;4983572;28;20737;-54
2021/11/25 11:26:48;;;;;;;4.47;0.65;;;;;;;;;;4986009;28;20046;-54
2021/11/25 11:29:16;;;;;;;1.65;0.63;;;;;;;;;;4984724;28;20042;-54
2021/11/25 11:31:43;;;;;;;1.77;0.50;;;;;;;;;;4969087;28;20038;-55
2021/11/25 11:34:10;;;;;;;2.90;0.50;;;;;;;;;;4985368;28;20050;-56
2021/11/25 11:36:41;;;;;;;1.38;0.55;;;;;;;;;;4985211;28;20038;-55
2021/11/25 11:39:07;;;;;;;1.92;0.43;;;;;;;;;;4984111;28;20132;-54
2021/11/25 11:41:33;;;;;;;2.05;0.52;;;;;;;;;;4984838;28;20038;-54
2021/11/25 11:44:02;;;;;;;1.10;0.40;;;;;;;;;;4985933;28;20130;-53
2021/11/25 11:46:28;;;;;;;1.20;0.40;;;;;;;;;;4986849;28;20504;-54
2021/11/25 11:48:57;;;;;;;1.27;0.40;;;;;;;;;;4985203;28;20046;-54
2021/11/25 11:51:22;;;;;;;1.75;0.60;;;;;;;;;;4987708;28;20044;-55
2021/11/25 11:53:54;;;;;;;1.65;0.60;;;;;;;;;;4986138;28;20046;-54
2021/11/25 11:56:32;;;;;;;1.15;0.50;;;;;;;;;;4986398;28;20042;-52
2021/11/25 11:58:59;;;;;;;1.05;0.50;;;;;;;;;;4984372;28;20045;-51
2021/11/25 12:01:28;;;;;;;0.98;0.43;;;;;;;;;;4987146;28;20026;-54
2021/11/25 12:03:56;;;;;;;1.50;0.60;;;;;;;;;;4988484;28;20058;-53
2021/11/25 12:06:30;;;;;;;1.30;0.50;;;;;;;;;;4984419;28;20035;-53
2021/11/25 12:08:56;;;;;;;1.73;0.60;;;;;;;;;;4984538;28;20047;-52
2021/11/25 12:11:22;;;;;;;0.90;0.45;;;;;;;;;;4987198;28;20141;-53
2021/11/25 12:13:56;;;;;;;1.33;0.43;;;;;;;;;;4986604;28;20718;-53
2021/11/25 12:16:22;;;;;;;1.40;0.55;;;;;;;;;;4983557;28;20114;-54
2021/11/25 12:18:54;;;;;;;1.13;0.47;;;;;;;;;;4985413;28;20100;-54
2021/11/25 12:21:39;;;;;;;0.95;0.43;;;;;;;;;;4981764;28;20046;-53
2021/11/25 12:24:08;;;;;;;2.05;0.70;;;;;;;;;;4983386;28;20065;-54
2021/11/25 12:27:01;;;;;;;1.00;0.50;;;;;;;;;;4982856;28;20080;-54
2021/11/25 12:29:47;;;;;;;5.65;0.70;;;;;;;;;;4980692;28;20038;-55
2021/11/25 12:32:28;;;;;;;0.98;0.43;;;;;;;;;;4985336;28;20050;-54
2021/11/25 12:35:26;;;;;;;2.05;0.63;;;;;;;;;;4982017;28;20069;-54
2021/11/25 12:37:58;;;;;;;1.65;0.60;;;;;;;;;;4982532;28;20058;-55
2021/11/25 12:40:23;;;;;;;1.85;0.55;;;;;;;;;;4984059;28;20763;-56
2021/11/25 12:42:51;;;;;;;2.20;0.60;;;;;;;;;;4983051;28;20121;-55
2021/11/25 12:45:37;;;;;;;4.22;0.63;;;;;;;;;;4982806;28;20142;-56
2021/11/25 12:48:09;;;;;;;1.60;0.50;;;;;;;;;;4982166;28;20034;-51
2021/11/25 12:50:44;;;;;;;2.50;0.60;;;;;;;;;;4979252;28;20046;-54
2021/11/25 12:53:11;;;;;;;2.28;0.90;;;;;;;;;;4984145;28;20042;-54
2021/11/25 12:55:37;;;;;;;4.30;0.88;;;;;;;;;;4982203;28;20703;-55
2021/11/25 12:58:04;;;;;;;3.30;0.80;;;;;;;;;;4982120;28;20495;-54
2021/11/25 13:00:31;;;;;;;2.75;0.60;;;;;;;;;;4980331;28;20034;-55
2021/11/25 13:03:18;;;;;;;1.95;0.70;;;;;;;;;;4981737;28;20152;-54
2021/11/25 13:05:45;;;;;;;3.65;0.60;;;;;;;;;;4980217;28;20042;-54
2021/11/25 13:08:13;;;;;;;1.90;0.60;;;;;;;;;;4980949;28;20065;-56
2021/11/25 13:10:41;;;;;;;2.63;0.80;;;;;;;;;;4980778;28;20494;-55
2021/11/25 13:13:07;;;;;;;2.13;0.63;;;;;;;;;;4983519;28;20076;-56
2021/11/25 13:15:33;;;;;;;2.08;0.68;;;;;;;;;;4983505;28;20427;-54
2021/11/25 13:17:59;;;;;;;2.95;0.50;;;;;;;;;;4982654;28;20045;-57
2021/11/25 13:20:44;;;;;;;2.90;0.63;;;;;;;;;;4980953;28;22775;-56
2021/11/25 13:23:11;;;;;;;1.35;0.45;;;;;;;;;;4973821;28;20042;-55
2021/11/25 13:25:59;;;;;;;2.10;0.60;;;;;;;;;;4980678;28;20042;-56
2021/11/25 13:28:30;;;;;;;5.10;0.80;;;;;;;;;;4981546;28;20045;-55
2021/11/25 13:31:16;;;;;;;3.13;0.60;;;;;;;;;;4981603;28;20035;-54
2021/11/25 13:33:58;;;;;;;3.08;0.75;;;;;;;;;;4962791;28;20054;-55
2021/11/25 13:36:26;;;;;;;1.30;0.50;;;;;;;;;;4983586;28;20526;-53
2021/11/25 13:38:53;;;;;;;1.58;0.50;;;;;;;;;;4980356;28;20659;-55
2021/11/25 13:41:20;;;;;;;0.75;0.40;;;;;;;;;;4981095;28;20042;-53
2021/11/25 13:43:50;;;;;;;2.00;0.68;;;;;;;;;;4982161;28;20050;-54
2021/11/25 13:46:16;;;;;;;4.35;0.60;;;;;;;;;;4983305;28;20172;-52
2021/11/25 13:48:42;;;;;;;1.88;0.60;;;;;;;;;;4982733;28;20046;-54
2021/11/25 13:51:08;;;;;;;1.88;0.50;;;;;;;;;;4981567;28;20104;-54
2021/11/25 13:53:34;;;;;;;4.35;0.57;;;;;;;;;;4983624;28;20137;-55
2021/11/25 13:56:00;;;;;;;2.10;0.80;;;;;;;;;;4982648;28;20475;-54
2021/11/25 13:58:26;;;;;;;1.75;0.63;;;;;;;;;;4981464;28;20132;-55
2021/11/25 14:00:53;;;;;;;4.35;0.70;;;;;;;;;;4981172;28;20462;-54
2021/11/25 14:03:21;;;;;;;2.65;0.80;;;;;;;;;;4981034;28;20158;-55
2021/11/25 14:05:47;;;;;;;1.77;0.70;;;;;;;;;;4982467;28;20045;-55
2021/11/25 14:08:13;;;;;;;2.45;0.70;;;;;;;;;;4980315;28;20043;-55
2021/11/25 14:10:40;;;;;;;2.00;0.60;;;;;;;;;;4964392;28;20054;-55
2021/11/25 14:13:06;;;;;;;1.70;0.55;;;;;;;;;;4980886;28;20085;-51
2021/11/25 14:15:33;;;;;;;2.70;0.60;;;;;;;;;;4981476;28;20563;-51
2021/11/25 14:18:00;;;;;;;5.72;0.90;;;;;;;;;;4965072;28;20043;-55
2021/11/25 14:20:28;;;;;;;1.73;0.60;;;;;;;;;;4980432;28;20769;-54
2021/11/25 14:22:54;;;;;;;1.73;0.60;;;;;;;;;;4981659;28;20117;-54
2021/11/25 14:25:34;;;;;;;1.92;0.70;;;;;;;;;;4980430;28;20041;-57
2021/11/25 14:31:09;;;;;;;5.40;0.68;;;;;;;;;;4980992;28;20081;-52
2021/11/25 14:33:49;;;;;;;3.00;0.80;;;;;;;;;;4982645;28;20050;-55
2021/11/25 14:36:40;;;;;;;3.70;0.80;;;;;;;;;;4983597;28;20038;-56
2021/11/25 14:39:14;;;;;;;2.03;0.70;;;;;;;;;;4971590;28;20038;-55
2021/11/25 14:41:40;;;;;;;4.65;0.90;;;;;;;;;;4980872;28;20164;-54
2021/11/25 14:44:11;;;;;;;2.78;0.73;;;;;;;;;;4983699;28;20598;-53
2021/11/25 14:46:38;;;;;;;4.20;0.90;;;;;;;;;;4980995;28;20088;-54
2021/11/25 14:49:05;;;;;;;2.80;0.80;;;;;;;;;;4981828;28;20586;-53
2021/11/25 14:51:31;;;;;;;5.05;1.00;;;;;;;;;;4980950;28;20049;-55
2021/11/25 14:53:57;;;;;;;5.55;0.70;;;;;;;;;;4983086;28;20507;-55
2021/11/25 14:56:25;;;;;;;3.15;0.75;;;;;;;;;;4964326;28;20030;-54